Time;durP1;ratioP1;P1;durP2;ratioP2;P2;SDS_P1;SDS_P2;PMS_P1;PMS_P2;Temp;Humidity;BMP_temperature;BMP_pressure;BME280_temperature;BME280_humidity;BME280_pressure;Samples;Min_cycle;Max_cycle;Signal;HPM_P1;HPM_P2
2022/04/27 00:03:04;;;;;;;10.32;4.13;;;5.60;99.90;;;;;;5008419;28;20166;-75
2022/04/27 00:05:31;;;;;;;11.40;5.45;;;5.70;99.90;;;;;;5007991;28;20041;-76
2022/04/27 00:07:56;;;;;;;9.68;4.82;;;5.70;99.90;;;;;;5008684;28;20030;-75
2022/04/27 00:10:22;;;;;;;16.30;7.32;;;5.80;99.90;;;;;;5007848;28;20485;-75
2022/04/27 00:12:49;;;;;;;5.57;3.40;;;5.80;99.90;;;;;;5006852;28;20044;-75
2022/04/27 00:15:15;;;;;;;4.47;3.00;;;5.90;99.90;;;;;;5005592;28;20026;-76
2022/04/27 00:17:41;;;;;;;5.45;3.50;;;5.90;99.90;;;;;;5008846;28;20428;-75
2022/04/27 00:20:08;;;;;;;3.65;2.67;;;6.00;99.90;;;;;;5011296;28;20034;-76
2022/04/27 00:22:36;;;;;;;3.78;2.55;;;5.90;99.90;;;;;;5009736;28;20069;-75
2022/04/27 00:25:05;;;;;;;3.65;2.85;;;5.80;99.90;;;;;;5007031;28;20051;-76
2022/04/27 00:27:31;;;;;;;4.00;2.58;;;5.80;99.90;;;;;;5007749;28;20026;-75
2022/04/27 00:30:01;;;;;;;3.42;3.00;;;5.80;99.90;;;;;;5007475;28;20046;-76
2022/04/27 00:32:27;;;;;;;3.22;2.88;;;5.90;99.90;;;;;;5005407;28;20123;-76
2022/04/27 00:34:52;;;;;;;5.15;3.42;;;5.90;99.90;;;;;;5006725;28;20065;-76
2022/04/27 00:37:19;;;;;;;5.68;3.00;;;6.00;99.90;;;;;;5005672;28;20030;-76
2022/04/27 00:39:45;;;;;;;3.65;2.90;;;6.00;99.90;;;;;;4989021;28;20506;-76
2022/04/27 00:42:30;;;;;;;4.70;3.35;;;6.00;99.90;;;;;;5004203;28;20063;-76
2022/04/27 00:44:55;;;;;;;5.43;3.63;;;6.10;99.90;;;;;;5006791;28;20515;-76
2022/04/27 00:47:21;;;;;;;4.90;3.13;;;6.10;99.90;;;;;;5005522;28;20176;-76
2022/04/27 00:49:50;;;;;;;3.33;2.53;;;6.10;99.90;;;;;;5006455;28;20373;-76
2022/04/27 00:52:17;;;;;;;4.70;3.35;;;6.10;99.90;;;;;;5005314;28;20030;-76
2022/04/27 00:54:51;;;;;;;4.00;3.42;;;6.10;99.90;;;;;;5003691;28;20045;-75
2022/04/27 00:57:17;;;;;;;5.85;4.00;;;6.10;99.90;;;;;;5004489;28;20030;-75
2022/04/27 00:59:46;;;;;;;4.68;4.15;;;6.10;99.90;;;;;;5007335;28;20030;-75
2022/04/27 01:02:12;;;;;;;7.00;4.10;;;6.10;99.90;;;;;;5002270;28;20073;-76
2022/04/27 01:04:38;;;;;;;5.13;3.88;;;6.10;99.90;;;;;;5003929;28;20405;-75
2022/04/27 01:07:05;;;;;;;4.45;3.47;;;6.10;99.90;;;;;;5004843;28;20026;-75
2022/04/27 01:09:32;;;;;;;5.93;3.85;;;6.20;99.90;;;;;;5005941;28;20038;-74
2022/04/27 01:11:59;;;;;;;4.85;3.63;;;6.20;99.90;;;;;;5002698;28;20041;-75
2022/04/27 01:14:25;;;;;;;6.10;4.07;;;6.20;99.90;;;;;;5001841;28;20406;-74
2022/04/27 01:17:11;;;;;;;6.38;3.78;;;6.20;99.90;;;;;;5005283;28;20036;-75
2022/04/27 01:19:37;;;;;;;6.28;4.25;;;6.20;99.90;;;;;;5005611;28;20592;-75
2022/04/27 01:22:03;;;;;;;6.35;4.20;;;6.20;99.90;;;;;;5004182;28;20048;-75
2022/04/27 01:24:30;;;;;;;6.00;3.88;;;6.20;99.90;;;;;;5002507;28;20104;-76
2022/04/27 01:26:56;;;;;;;4.80;4.05;;;6.20;99.90;;;;;;5002941;28;20029;-75
2022/04/27 01:29:23;;;;;;;5.13;3.67;;;6.20;99.90;;;;;;5005264;28;20046;-75
2022/04/27 01:31:49;;;;;;;7.20;4.47;;;6.20;99.90;;;;;;5004055;28;20056;-75
2022/04/27 01:34:15;;;;;;;7.05;4.38;;;6.20;99.90;;;;;;5003314;28;20036;-76
2022/04/27 01:36:41;;;;;;;6.18;4.35;;;6.20;99.90;;;;;;5004276;28;20400;-75
2022/04/27 01:39:07;;;;;;;7.50;4.30;;;6.20;99.90;;;;;;5006252;28;20465;-75
2022/04/27 01:41:34;;;;;;;7.57;4.38;;;6.30;99.90;;;;;;5004705;28;20041;-76
2022/04/27 01:44:00;;;;;;;7.10;4.45;;;6.30;99.90;;;;;;4985618;28;20052;-76
2022/04/27 01:46:27;;;;;;;5.43;4.15;;;6.30;99.90;;;;;;5006693;28;20038;-75
2022/04/27 01:48:53;;;;;;;7.95;4.63;;;6.30;99.90;;;;;;5006296;28;20220;-75
2022/04/27 01:54:14;;;;;;;7.40;4.68;;;6.30;99.90;;;;;;5004226;28;20038;-75
2022/04/27 01:54:20;;;;;;;6.88;4.55;;;6.30;99.90;;;;;;5004143;28;20029;-75
2022/04/27 01:56:48;;;;;;;8.60;4.90;;;6.30;99.90;;;;;;5003478;28;20022;-76
2022/04/27 01:59:14;;;;;;;6.10;4.53;;;6.30;99.90;;;;;;5003683;28;20045;-75
2022/04/27 02:01:41;;;;;;;5.72;4.15;;;6.30;99.90;;;;;;5004105;28;20038;-76
2022/04/27 02:04:10;;;;;;;6.50;4.32;;;6.30;99.90;;;;;;5003373;28;20065;-76
2022/04/27 02:06:36;;;;;;;7.00;4.80;;;6.30;99.90;;;;;;5003853;28;20029;-76
2022/04/27 02:09:04;;;;;;;8.18;5.30;;;6.40;99.90;;;;;;5005804;28;20038;-75
2022/04/27 02:11:30;;;;;;;6.45;4.50;;;6.40;99.90;;;;;;5005279;28;20033;-76
2022/04/27 02:13:55;;;;;;;7.80;5.00;;;6.40;99.90;;;;;;5003991;28;20329;-76
2022/04/27 02:16:25;;;;;;;7.28;4.72;;;6.40;99.90;;;;;;5004150;28;20040;-76
2022/04/27 02:18:55;;;;;;;9.25;5.10;;;6.40;99.90;;;;;;5005132;28;20042;-75
2022/04/27 02:21:22;;;;;;;6.38;4.20;;;6.40;99.90;;;;;;5004787;28;20042;-76
2022/04/27 02:23:49;;;;;;;6.32;4.65;;;6.40;99.90;;;;;;5003761;28;20065;-76
2022/04/27 02:26:18;;;;;;;9.80;5.22;;;6.50;99.90;;;;;;4999167;28;20041;-76
2022/04/27 02:28:50;;;;;;;7.65;4.82;;;6.40;99.90;;;;;;5004942;28;20059;-76
2022/04/27 02:31:16;;;;;;;6.68;4.68;;;6.50;99.90;;;;;;5002695;28;20037;-75
2022/04/27 02:33:42;;;;;;;8.73;5.97;;;6.50;99.90;;;;;;5003975;28;20033;-76
2022/04/27 02:36:07;;;;;;;9.90;5.00;;;6.50;99.90;;;;;;5006881;28;20042;-76
2022/04/27 02:38:33;;;;;;;5.95;4.85;;;6.50;99.90;;;;;;5007207;28;20033;-76
2022/04/27 02:40:59;;;;;;;9.77;5.93;;;6.50;99.90;;;;;;5006156;28;20396;-76
2022/04/27 02:43:27;;;;;;;8.45;5.32;;;6.50;99.90;;;;;;5001276;28;20413;-75
2022/04/27 02:45:52;;;;;;;9.15;5.07;;;6.50;99.90;;;;;;5002380;28;20076;-76
2022/04/27 02:48:18;;;;;;;6.93;4.50;;;6.50;99.90;;;;;;5004246;28;20393;-75
2022/04/27 02:53:28;;;;;;;7.78;5.15;;;6.50;99.90;;;;;;5003873;28;20453;-75
2022/04/27 02:55:57;;;;;;;9.40;5.22;;;6.40;99.90;;;;;;5000395;28;20065;-75
2022/04/27 02:58:23;;;;;;;7.22;4.90;;;6.40;99.90;;;;;;5004401;28;20485;-75
2022/04/27 03:00:53;;;;;;;8.85;5.68;;;6.40;99.90;;;;;;5000990;28;20469;-76
2022/04/27 03:03:18;;;;;;;13.55;5.20;;;6.30;99.90;;;;;;5005374;28;20417;-75
2022/04/27 03:05:44;;;;;;;29.17;5.80;;;6.10;99.90;;;;;;5004866;28;20034;-75
2022/04/27 03:08:10;;;;;;;6.18;4.05;;;6.00;99.90;;;;;;5006270;28;20038;-75
2022/04/27 03:10:36;;;;;;;5.80;4.40;;;6.00;99.90;;;;;;5006546;28;20056;-76
2022/04/27 03:13:01;;;;;;;5.53;4.18;;;6.00;99.90;;;;;;5006425;28;20021;-75
2022/04/27 03:15:27;;;;;;;7.80;4.78;;;6.00;99.90;;;;;;5006326;28;20033;-75
2022/04/27 03:20:37;;;;;;;7.38;5.32;;;6.00;99.90;;;;;;5006202;28;20080;-75
2022/04/27 03:23:03;;;;;;;6.97;5.07;;;6.00;99.90;;;;;;5007310;28;20049;-75
2022/04/27 03:25:29;;;;;;;8.95;5.95;;;6.00;99.90;;;;;;5005144;28;20100;-75
2022/04/27 03:27:54;;;;;;;8.23;5.15;;;6.00;99.90;;;;;;5005436;28;20038;-76
2022/04/27 03:30:20;;;;;;;8.55;5.60;;;6.00;99.90;;;;;;5005783;28;20037;-76
2022/04/27 03:32:45;;;;;;;9.60;5.75;;;6.00;99.90;;;;;;5002512;28;20524;-76
2022/04/27 03:35:11;;;;;;;8.63;5.22;;;6.00;99.90;;;;;;5005978;28;20037;-76
2022/04/27 03:37:37;;;;;;;9.30;5.50;;;6.00;99.90;;;;;;5006711;28;20076;-75
2022/04/27 03:40:05;;;;;;;8.20;5.47;;;6.00;99.90;;;;;;5006706;28;20485;-75
2022/04/27 03:42:31;;;;;;;9.02;5.88;;;6.10;99.90;;;;;;5006331;28;20564;-75
2022/04/27 03:44:56;;;;;;;8.88;6.03;;;6.00;99.90;;;;;;5006989;28;20044;-75
2022/04/27 03:47:22;;;;;;;9.43;6.22;;;6.00;99.90;;;;;;5004696;28;20056;-75
2022/04/27 03:49:47;;;;;;;8.73;5.68;;;6.00;99.90;;;;;;5005886;28;20041;-75
2022/04/27 03:52:13;;;;;;;10.68;6.40;;;6.00;99.90;;;;;;5005374;28;20034;-75
2022/04/27 03:54:39;;;;;;;12.27;6.45;;;6.00;99.90;;;;;;5006009;28;20030;-76
2022/04/27 03:57:04;;;;;;;9.43;5.60;;;5.90;99.90;;;;;;5006207;28;20164;-76
2022/04/27 03:59:30;;;;;;;7.97;4.97;;;5.90;99.90;;;;;;5004620;28;20405;-75
2022/04/27 04:01:55;;;;;;;7.82;5.13;;;5.90;99.90;;;;;;5004717;28;20054;-75
2022/04/27 04:04:21;;;;;;;8.45;4.68;;;5.90;99.90;;;;;;5007416;28;20072;-77
2022/04/27 04:06:48;;;;;;;8.07;4.63;;;5.80;99.90;;;;;;5006206;28;20123;-75
2022/04/27 04:09:14;;;;;;;6.45;3.65;;;5.70;99.90;;;;;;5005060;28;20121;-75
2022/04/27 04:11:39;;;;;;;7.45;3.88;;;5.70;99.90;;;;;;5006793;28;20114;-75
2022/04/27 04:14:05;;;;;;;11.63;4.03;;;5.60;99.90;;;;;;5005730;28;20125;-75
2022/04/27 04:16:31;;;;;;;6.00;3.60;;;5.50;99.90;;;;;;5006040;28;21760;-75
2022/04/27 04:18:56;;;;;;;4.40;3.33;;;5.50;99.90;;;;;;5006388;28;20473;-75
2022/04/27 04:21:22;;;;;;;4.15;3.42;;;5.50;99.90;;;;;;5004331;28;21602;-76
2022/04/27 04:23:48;;;;;;;19.80;3.85;;;5.60;99.90;;;;;;5006343;28;20045;-76
2022/04/27 04:28:58;;;;;;;4.88;3.25;;;5.60;99.90;;;;;;5007633;28;20052;-76
2022/04/27 04:31:24;;;;;;;5.63;3.90;;;5.60;99.90;;;;;;5003599;28;20042;-76
2022/04/27 04:33:49;;;;;;;6.43;4.15;;;5.60;99.90;;;;;;4997050;28;20033;-76
2022/04/27 04:36:15;;;;;;;6.82;4.18;;;5.60;99.90;;;;;;5004422;28;20034;-76
2022/04/27 04:38:41;;;;;;;6.13;4.13;;;5.50;99.90;;;;;;5005459;28;20033;-76
2022/04/27 04:41:06;;;;;;;6.55;4.65;;;5.50;99.90;;;;;;5004100;28;20041;-76
2022/04/27 04:43:35;;;;;;;4.30;3.25;;;5.60;99.90;;;;;;5004366;28;20054;-75
2022/04/27 04:46:01;;;;;;;5.03;3.03;;;5.60;99.90;;;;;;5005013;28;20034;-76
2022/04/27 04:48:27;;;;;;;6.95;4.00;;;5.70;99.90;;;;;;5005883;28;20095;-75
2022/04/27 04:50:52;;;;;;;35.28;5.30;;;5.60;99.90;;;;;;5009991;28;20026;-75
2022/04/27 04:53:20;;;;;;;32.90;4.88;;;5.50;99.90;;;;;;5010567;28;20037;-75
2022/04/27 04:55:45;;;;;;;4.35;3.00;;;5.40;99.90;;;;;;5008869;28;20030;-75
2022/04/27 04:58:11;;;;;;;4.65;3.05;;;5.40;99.90;;;;;;5007234;28;20034;-75
2022/04/27 05:00:43;;;;;;;4.65;3.53;;;5.50;99.90;;;;;;5006924;28;20397;-76
2022/04/27 05:03:09;;;;;;;7.68;4.50;;;5.50;99.90;;;;;;5007024;28;20389;-74
2022/04/27 05:05:38;;;;;;;10.48;5.32;;;5.60;99.90;;;;;;5006897;28;20045;-76
2022/04/27 05:08:06;;;;;;;6.78;4.80;;;5.70;99.90;;;;;;5007152;28;20116;-76
2022/04/27 05:10:32;;;;;;;11.05;6.13;;;5.70;99.90;;;;;;5001788;28;20026;-76
2022/04/27 05:12:57;;;;;;;10.25;5.82;;;5.80;99.90;;;;;;5007033;28;20040;-77
2022/04/27 05:15:23;;;;;;;12.90;6.70;;;5.80;99.90;;;;;;5021116;28;20124;-75
2022/04/27 05:17:52;;;;;;;12.20;6.55;;;5.90;99.90;;;;;;5005195;28;20041;-75
2022/04/27 05:20:17;;;;;;;13.48;7.38;;;6.00;99.90;;;;;;5006459;28;21792;-76
2022/04/27 05:22:43;;;;;;;11.65;6.57;;;6.10;99.90;;;;;;5005467;28;20057;-75
2022/04/27 05:25:10;;;;;;;13.93;7.65;;;6.10;99.90;;;;;;5005175;28;20076;-75
2022/04/27 05:27:37;;;;;;;12.27;7.40;;;6.20;99.90;;;;;;5004657;28;20089;-76
2022/04/27 05:32:49;;;;;;;14.32;8.00;;;6.30;99.90;;;;;;5005726;28;20109;-75
2022/04/27 05:35:15;;;;;;;12.90;6.95;;;6.30;99.90;;;;;;5006911;28;20073;-75
2022/04/27 05:37:41;;;;;;;13.20;6.88;;;6.30;99.90;;;;;;5020693;28;20397;-75
2022/04/27 05:40:09;;;;;;;14.45;7.30;;;6.30;99.90;;;;;;5005441;28;20038;-76
2022/04/27 05:42:36;;;;;;;18.00;7.60;;;6.30;99.90;;;;;;5006432;28;20053;-75
2022/04/27 05:45:05;;;;;;;11.82;6.68;;;6.30;99.90;;;;;;5004246;28;20021;-76
2022/04/27 05:47:32;;;;;;;14.90;7.88;;;6.20;99.90;;;;;;5002480;28;20042;-76
2022/04/27 05:49:58;;;;;;;11.60;6.47;;;6.20;99.90;;;;;;5007796;28;20038;-75
2022/04/27 05:52:24;;;;;;;9.48;5.75;;;6.20;99.90;;;;;;5006274;28;20160;-76
2022/04/27 05:54:51;;;;;;;10.20;6.78;;;6.30;99.90;;;;;;5004253;28;20038;-76
2022/04/27 05:57:17;;;;;;;9.85;6.45;;;6.40;99.90;;;;;;5004197;28;20036;-75
2022/04/27 05:59:43;;;;;;;13.10;6.22;;;6.40;99.90;;;;;;5005170;28;20052;-76
2022/04/27 06:02:09;;;;;;;11.98;5.82;;;6.40;99.90;;;;;;5004657;28;20041;-75
2022/04/27 06:04:35;;;;;;;9.98;5.70;;;6.30;99.90;;;;;;5003542;28;20037;-76
2022/04/27 06:07:01;;;;;;;17.67;7.25;;;6.30;99.90;;;;;;5005555;28;20036;-76
2022/04/27 06:09:27;;;;;;;10.32;5.78;;;6.30;99.90;;;;;;5005753;28;20021;-75
2022/04/27 06:11:53;;;;;;;11.73;6.55;;;6.50;99.90;;;;;;5005693;28;20091;-76
2022/04/27 06:14:20;;;;;;;13.07;7.47;;;6.70;99.90;;;;;;5001615;28;20029;-76
2022/04/27 06:16:45;;;;;;;14.18;6.82;;;6.50;99.90;;;;;;5004440;28;20030;-76
2022/04/27 06:19:11;;;;;;;13.02;7.95;;;6.50;99.90;;;;;;5006048;28;20045;-76
2022/04/27 06:21:37;;;;;;;16.58;8.65;;;6.70;99.90;;;;;;5015329;28;20502;-76
2022/04/27 06:24:05;;;;;;;16.92;8.65;;;6.90;99.90;;;;;;5003949;28;20038;-76
2022/04/27 06:26:33;;;;;;;15.73;8.13;;;7.10;99.90;;;;;;5007014;28;20121;-77
2022/04/27 06:29:04;;;;;;;13.20;7.97;;;7.20;99.90;;;;;;5005373;28;20210;-76
2022/04/27 06:31:30;;;;;;;17.08;9.65;;;7.30;99.90;;;;;;5005956;28;20048;-75
2022/04/27 06:33:57;;;;;;;15.13;8.38;;;7.40;99.90;;;;;;5003020;28;20037;-76
2022/04/27 06:36:23;;;;;;;17.73;9.63;;;7.40;99.90;;;;;;5022439;28;20029;-76
2022/04/27 06:38:48;;;;;;;18.48;9.60;;;7.50;99.90;;;;;;5008087;28;20033;-76
2022/04/27 06:41:14;;;;;;;21.15;10.07;;;7.50;99.90;;;;;;5009835;28;20030;-75
2022/04/27 06:43:40;;;;;;;18.30;9.35;;;7.70;99.90;;;;;;5009723;28;20058;-75
2022/04/27 06:46:05;;;;;;;19.58;10.02;;;7.80;99.90;;;;;;5008570;28;20609;-76
2022/04/27 06:48:32;;;;;;;20.20;10.40;;;8.00;99.90;;;;;;5006816;28;20393;-76
2022/04/27 06:50:58;;;;;;;20.95;10.18;;;8.10;99.90;;;;;;5009339;28;20029;-76
2022/04/27 06:53:24;;;;;;;15.95;9.43;;;8.40;99.90;;;;;;5009400;28;20045;-76
2022/04/27 06:55:50;;;;;;;17.27;8.70;;;8.60;99.90;;;;;;5005515;28;20121;-76
2022/04/27 06:58:16;;;;;;;19.67;10.23;;;8.70;99.90;;;;;;5009456;28;20038;-75
2022/04/27 07:00:42;;;;;;;17.98;9.80;;;9.00;99.90;;;;;;5005832;28;20038;-76
2022/04/27 07:03:08;;;;;;;16.92;8.88;;;9.00;99.90;;;;;;5005896;28;20037;-75
2022/04/27 07:05:34;;;;;;;19.30;9.32;;;9.00;99.90;;;;;;5009243;28;20038;-76
2022/04/27 07:08:00;;;;;;;16.75;9.38;;;8.90;99.90;;;;;;5011389;28;20034;-77
2022/04/27 07:10:26;;;;;;;18.08;9.77;;;8.90;99.90;;;;;;5009361;28;20030;-75
2022/04/27 07:12:52;;;;;;;20.60;9.80;;;9.00;99.90;;;;;;5005289;28;20088;-76
2022/04/27 07:15:17;;;;;;;18.13;9.82;;;9.10;99.90;;;;;;5008096;28;20420;-76
2022/04/27 07:17:43;;;;;;;17.13;8.80;;;9.10;99.90;;;;;;5009011;28;20477;-76
2022/04/27 07:20:10;;;;;;;20.45;9.95;;;9.30;99.90;;;;;;5008218;28;20425;-76
2022/04/27 07:22:36;;;;;;;12.55;7.30;;;9.60;99.90;;;;;;5009549;28;20748;-77
2022/04/27 07:25:01;;;;;;;16.42;8.77;;;9.80;99.90;;;;;;5006483;28;20042;-76
2022/04/27 07:27:29;;;;;;;15.65;8.30;;;9.80;99.90;;;;;;5008209;28;20033;-76
2022/04/27 07:29:55;;;;;;;14.25;7.78;;;10.00;99.90;;;;;;5008633;28;20049;-76
2022/04/27 07:32:20;;;;;;;15.68;7.97;;;10.10;99.90;;;;;;5008603;28;20123;-76
2022/04/27 07:34:46;;;;;;;11.98;6.68;;;10.60;99.90;;;;;;5006839;28;20709;-76
2022/04/27 07:37:12;;;;;;;10.05;6.70;;;10.60;99.90;;;;;;5005371;28;20381;-76
2022/04/27 07:39:38;;;;;;;10.82;6.43;;;10.50;99.90;;;;;;5007705;28;20038;-75
2022/04/27 07:42:04;;;;;;;9.93;5.97;;;10.30;99.90;;;;;;5005317;28;20075;-76
2022/04/27 07:44:46;;;;;;;10.55;6.18;;;10.00;99.90;;;;;;5124021;27;20135;-30
2022/04/27 07:47:13;;;;;;;11.50;6.43;;;9.70;99.90;;;;;;5092379;28;20023;-29
2022/04/27 07:49:38;;;;;;;11.55;6.72;;;9.50;99.90;;;;;;5095686;28;20484;-30
2022/04/27 07:52:04;;;;;;;11.13;6.72;;;9.50;99.90;;;;;;5094126;28;20028;-30
2022/04/27 07:54:30;;;;;;;16.25;8.15;;;9.70;99.90;;;;;;5094399;28;20036;-30
2022/04/27 07:56:55;;;;;;;8.63;5.65;;;10.00;99.90;;;;;;5095905;28;20500;-29
2022/04/27 07:59:21;;;;;;;8.07;5.47;;;10.10;99.90;;;;;;5092799;28;20136;-30
2022/04/27 08:01:46;;;;;;;10.27;5.65;;;10.00;99.90;;;;;;5079161;28;20491;-30
2022/04/27 08:04:12;;;;;;;10.18;6.15;;;10.60;99.90;;;;;;5060454;28;20033;-30
2022/04/27 08:06:38;;;;;;;8.45;5.40;;;10.90;99.90;;;;;;5056196;28;20033;-30
2022/04/27 08:09:03;;;;;;;7.35;5.20;;;11.20;99.90;;;;;;5057168;28;20070;-32
2022/04/27 08:11:29;;;;;;;6.80;5.20;;;11.20;99.90;;;;;;5074156;28;20313;-32
2022/04/27 08:13:54;;;;;;;8.88;5.40;;;11.20;99.90;;;;;;5058360;28;20075;-32
2022/04/27 08:16:20;;;;;;;8.55;5.30;;;11.20;99.90;;;;;;5055636;28;20037;-32
2022/04/27 08:18:46;;;;;;;7.80;5.07;;;11.10;99.90;;;;;;5056530;28;20104;-32
2022/04/27 08:21:14;;;;;;;7.93;5.40;;;11.00;99.90;;;;;;5053038;28;20028;-32
2022/04/27 08:23:45;;;;;;;7.47;4.43;;;10.90;99.90;;;;;;5056855;28;20071;-32
2022/04/27 08:26:11;;;;;;;7.13;5.13;;;10.60;99.90;;;;;;5054885;28;20493;-32
2022/04/27 08:28:37;;;;;;;8.10;5.38;;;10.60;99.90;;;;;;5060208;28;20484;-32
2022/04/27 08:31:04;;;;;;;8.80;5.15;;;10.60;99.90;;;;;;5053261;28;20040;-32
2022/04/27 08:33:30;;;;;;;6.20;4.07;;;10.60;99.90;;;;;;5052138;28;20036;-32
2022/04/27 08:35:57;;;;;;;6.10;4.22;;;10.50;99.90;;;;;;5054798;28;20033;-32
2022/04/27 08:38:23;;;;;;;7.57;5.22;;;10.70;99.90;;;;;;5052396;28;20060;-32
2022/04/27 08:40:49;;;;;;;7.63;4.72;;;10.70;99.90;;;;;;5058989;28;20112;-31
2022/04/27 08:43:15;;;;;;;8.73;5.65;;;10.80;99.90;;;;;;5058678;28;20064;-32
2022/04/27 08:45:43;;;;;;;8.23;5.25;;;10.70;99.90;;;;;;5057401;28;20028;-32
2022/04/27 08:48:10;;;;;;;9.52;5.05;;;10.80;99.90;;;;;;5058860;28;20037;-32
2022/04/27 08:50:36;;;;;;;5.97;4.40;;;10.80;99.90;;;;;;5054467;28;20063;-32
2022/04/27 08:53:02;;;;;;;6.55;4.75;;;10.70;99.90;;;;;;5053896;28;20460;-32
2022/04/27 08:55:28;;;;;;;10.35;5.30;;;10.70;99.90;;;;;;5047299;28;20087;-32
2022/04/27 08:58:05;;;;;;;6.78;4.80;;;10.70;99.90;;;;;;5044212;28;20610;-32
2022/04/27 09:00:30;;;;;;;5.55;4.22;;;10.60;99.90;;;;;;5045735;28;20139;-32
2022/04/27 09:03:16;;;;;;;5.88;4.32;;;10.50;99.90;;;;;;5043032;28;20424;-32
2022/04/27 09:06:10;;;;;;;8.65;5.00;;;10.40;99.90;;;;;;5045439;28;20037;-33
2022/04/27 09:08:37;;;;;;;7.93;4.47;;;10.40;99.90;;;;;;5045235;28;20021;-32
2022/04/27 09:11:15;;;;;;;7.38;4.93;;;10.20;99.90;;;;;;5042192;28;20461;-32
2022/04/27 09:13:57;;;;;;;8.38;5.38;;;10.10;99.90;;;;;;5040553;28;20029;-32
2022/04/27 09:16:25;;;;;;;7.63;4.95;;;10.20;99.90;;;;;;5042290;28;20045;-32
2022/04/27 09:21:58;;;;;;;7.55;5.03;;;10.10;99.90;;;;;;5042700;28;20372;-32
2022/04/27 09:24:24;;;;;;;6.67;4.40;;;9.90;99.90;;;;;;5041278;28;20091;-32
2022/04/27 09:27:12;;;;;;;7.78;4.88;;;10.00;99.90;;;;;;5041333;28;20036;-32
2022/04/27 09:29:38;;;;;;;7.88;5.05;;;10.00;99.90;;;;;;5042743;28;20235;-32
2022/04/27 09:32:06;;;;;;;7.20;5.38;;;10.00;99.90;;;;;;5041427;28;20524;-31
2022/04/27 09:34:46;;;;;;;6.45;5.10;;;10.00;99.90;;;;;;5046291;28;20098;-31
2022/04/27 09:37:24;;;;;;;9.43;5.32;;;10.00;99.90;;;;;;5041821;28;20037;-33
2022/04/27 09:40:11;;;;;;;8.90;5.32;;;10.10;99.90;;;;;;5043117;28;20041;-32
2022/04/27 09:42:43;;;;;;;7.35;4.95;;;10.20;99.90;;;;;;5043641;28;20515;-32
2022/04/27 09:45:24;;;;;;;8.02;5.57;;;10.40;99.90;;;;;;5041026;28;20025;-32
2022/04/27 09:48:00;;;;;;;6.85;4.43;;;10.50;99.90;;;;;;5044350;28;20021;-31
2022/04/27 09:50:26;;;;;;;7.72;4.68;;;10.90;99.90;;;;;;5043917;28;20021;-31
2022/04/27 09:52:55;;;;;;;7.20;4.88;;;11.10;99.90;;;;;;5047054;28;20393;-31
2022/04/27 09:55:23;;;;;;;6.90;4.85;;;11.20;99.90;;;;;;5041649;28;20525;-32
2022/04/27 09:57:58;;;;;;;6.47;4.57;;;11.30;99.90;;;;;;5042973;28;20035;-32
2022/04/27 10:00:25;;;;;;;7.07;4.38;;;11.10;99.90;;;;;;5043561;28;20076;-32
2022/04/27 10:02:52;;;;;;;5.97;3.85;;;11.20;99.90;;;;;;5040608;28;20076;-32
2022/04/27 10:05:20;;;;;;;5.38;3.95;;;11.50;99.90;;;;;;5046606;28;20516;-32
2022/04/27 10:07:47;;;;;;;5.35;3.97;;;11.60;99.90;;;;;;5046713;28;20122;-32
2022/04/27 10:10:16;;;;;;;10.32;6.65;;;11.60;99.90;;;;;;5042337;28;20029;-32
2022/04/27 10:12:42;;;;;;;8.65;5.68;;;11.20;99.90;;;;;;5042653;28;20039;-32
2022/04/27 10:15:08;;;;;;;10.23;6.80;;;11.00;99.90;;;;;;5041542;28;20025;-32
2022/04/27 10:17:34;;;;;;;9.00;5.70;;;11.00;99.90;;;;;;5042014;28;20033;-32
2022/04/27 10:20:00;;;;;;;7.43;5.05;;;11.00;99.90;;;;;;5041858;28;20037;-31
2022/04/27 10:22:31;;;;;;;9.10;5.18;;;11.00;99.90;;;;;;5040445;28;20028;-33
2022/04/27 10:25:04;;;;;;;8.40;4.85;;;11.20;99.90;;;;;;5043129;28;20037;-32
2022/04/27 10:27:33;;;;;;;8.23;5.20;;;11.30;99.90;;;;;;5040271;28;20038;-32
2022/04/27 10:30:01;;;;;;;8.75;4.53;;;11.30;99.90;;;;;;5042186;28;20028;-31
2022/04/27 10:32:40;;;;;;;9.02;5.15;;;11.10;99.90;;;;;;5040470;28;20040;-32
2022/04/27 10:35:12;;;;;;;8.38;4.93;;;11.20;99.90;;;;;;5041384;28;20780;-32
2022/04/27 10:38:05;;;;;;;7.80;4.85;;;11.20;99.90;;;;;;5043032;28;20485;-32
2022/04/27 10:40:38;;;;;;;6.40;4.40;;;11.40;99.90;;;;;;5043366;28;20111;-32
2022/04/27 10:43:14;;;;;;;5.18;3.63;;;11.60;99.90;;;;;;5038482;28;20068;-33
2022/04/27 10:45:42;;;;;;;6.78;4.22;;;11.90;99.90;;;;;;5041013;28;20029;-32
2022/04/27 10:48:16;;;;;;;5.90;4.05;;;12.30;99.90;;;;;;5039005;28;20061;-32
2022/04/27 10:50:54;;;;;;;5.00;3.70;;;12.10;99.90;;;;;;5045695;28;20033;-33
2022/04/27 10:53:25;;;;;;;5.32;3.38;;;11.90;99.90;;;;;;5039817;28;20037;-32
2022/04/27 10:56:00;;;;;;;5.90;4.15;;;11.80;99.90;;;;;;5040122;28;20371;-32
2022/04/27 10:58:31;;;;;;;7.70;4.15;;;11.80;99.90;;;;;;5041373;28;20409;-33
2022/04/27 11:01:02;;;;;;;6.68;4.18;;;11.90;99.90;;;;;;5040608;28;20045;-32
2022/04/27 11:03:35;;;;;;;5.47;4.10;;;11.80;99.90;;;;;;5034756;28;20028;-32
2022/04/27 11:06:12;;;;;;;8.88;5.15;;;11.70;99.90;;;;;;5041301;28;20025;-33
2022/04/27 11:09:02;;;;;;;5.85;4.43;;;11.70;99.90;;;;;;5039883;28;20075;-32
2022/04/27 11:11:30;;;;;;;6.25;4.00;;;11.50;99.90;;;;;;5036836;28;20025;-31
2022/04/27 11:14:01;;;;;;;5.57;3.70;;;11.60;99.90;;;;;;5037599;28;20037;-32
2022/04/27 11:16:27;;;;;;;6.90;4.50;;;11.60;99.90;;;;;;5042197;28;20394;-32
2022/04/27 11:18:57;;;;;;;5.72;4.03;;;11.80;99.90;;;;;;5040864;28;20033;-32
2022/04/27 11:21:25;;;;;;;5.53;4.22;;;11.80;99.90;;;;;;5038657;28;20040;-32
2022/04/27 11:23:51;;;;;;;4.60;3.30;;;11.60;99.90;;;;;;5040323;28;20396;-31
2022/04/27 11:26:17;;;;;;;4.20;3.17;;;11.60;99.90;;;;;;5036571;28;20037;-32
2022/04/27 11:28:44;;;;;;;5.38;3.88;;;11.60;99.90;;;;;;5043380;28;20021;-32
2022/04/27 11:31:11;;;;;;;8.10;5.50;;;11.70;99.90;;;;;;5041519;28;20029;-33
2022/04/27 11:33:40;;;;;;;7.13;4.63;;;11.90;99.90;;;;;;5041029;28;20047;-32
2022/04/27 11:36:27;;;;;;;6.82;5.57;;;11.80;99.90;;;;;;5042163;28;20033;-32
2022/04/27 11:38:54;;;;;;;6.38;5.10;;;12.00;99.90;;;;;;5041054;28;20643;-31
2022/04/27 11:41:23;;;;;;;6.38;5.00;;;12.00;99.90;;;;;;5041482;28;20145;-32
2022/04/27 11:43:51;;;;;;;6.97;5.30;;;12.00;99.90;;;;;;5037071;28;20417;-32
2022/04/27 11:46:17;;;;;;;6.70;4.73;;;11.90;99.90;;;;;;5038556;28;20025;-31
2022/04/27 11:48:47;;;;;;;7.28;5.00;;;11.80;99.90;;;;;;5035246;28;20075;-32
2022/04/27 11:51:13;;;;;;;5.63;4.32;;;11.70;99.90;;;;;;5042579;28;21048;-32
2022/04/27 11:53:47;;;;;;;8.18;5.00;;;11.60;99.90;;;;;;5042540;28;20478;-31
2022/04/27 11:56:14;;;;;;;4.57;3.63;;;11.50;99.90;;;;;;5043038;28;20505;-32
2022/04/27 11:58:40;;;;;;;4.70;3.50;;;11.50;99.90;;;;;;5041107;28;20477;-32
2022/04/27 12:01:05;;;;;;;5.53;4.32;;;11.50;99.90;;;;;;5040053;28;20039;-31
2022/04/27 12:03:39;;;;;;;3.78;3.20;;;11.50;99.90;;;;;;5043119;28;20052;-31
2022/04/27 12:06:05;;;;;;;5.40;3.40;;;11.40;99.90;;;;;;5041324;28;20417;-32
2022/04/27 12:08:33;;;;;;;5.32;3.47;;;11.50;99.90;;;;;;5041721;28;20044;-31
2022/04/27 12:10:59;;;;;;;4.03;3.20;;;11.60;99.90;;;;;;5042635;28;20029;-32
2022/04/27 12:13:25;;;;;;;5.47;3.20;;;11.60;99.90;;;;;;5043008;28;20809;-31
2022/04/27 12:15:54;;;;;;;5.65;3.70;;;11.90;99.90;;;;;;5040349;28;20060;-32
2022/04/27 12:18:25;;;;;;;5.63;3.90;;;12.00;99.90;;;;;;5039560;28;20029;-31
2022/04/27 12:20:51;;;;;;;5.82;3.83;;;12.10;99.90;;;;;;5039183;28;20071;-32
2022/04/27 12:23:18;;;;;;;5.63;4.80;;;11.90;99.90;;;;;;5045154;28;20128;-32
2022/04/27 12:25:53;;;;;;;5.60;4.80;;;11.40;99.90;;;;;;5044504;28;20046;-32
2022/04/27 12:28:26;;;;;;;6.82;5.07;;;11.10;99.90;;;;;;5042201;28;20402;-31
2022/04/27 12:30:54;;;;;;;7.70;5.13;;;10.90;99.90;;;;;;5044137;28;20040;-32
2022/04/27 12:33:27;;;;;;;6.82;4.88;;;10.90;99.90;;;;;;5043893;28;20037;-32
2022/04/27 12:38:58;;;;;;;6.78;5.22;;;11.00;99.90;;;;;;5048766;28;20055;-32
2022/04/27 12:41:39;;;;;;;5.57;4.80;;;11.00;99.90;;;;;;5041371;28;20033;-31
2022/04/27 12:44:09;;;;;;;6.93;5.28;;;11.20;99.90;;;;;;5044241;28;20041;-31
2022/04/27 12:46:38;;;;;;;6.63;5.30;;;11.30;99.90;;;;;;5044764;28;20512;-31
2022/04/27 12:49:05;;;;;;;;;;;11.40;99.90;;;;;;5043833;28;20515;-31
2022/04/27 12:51:35;;;;;;;7.07;5.22;;;11.50;99.90;;;;;;5042383;28;19967;-31
2022/04/27 12:54:04;;;;;;;5.97;4.80;;;11.60;99.90;;;;;;5043499;28;20045;-31
2022/04/27 12:56:35;;;;;;;6.53;4.97;;;11.60;99.90;;;;;;5047296;28;20082;-32
2022/04/27 12:59:10;;;;;;;5.78;4.57;;;11.70;99.90;;;;;;5043455;28;20087;-31
2022/04/27 13:01:36;;;;;;;5.50;4.82;;;11.70;99.90;;;;;;5042027;28;20041;-32
2022/04/27 13:04:02;;;;;;;5.90;5.13;;;11.80;99.90;;;;;;5042901;28;20029;-32
2022/04/27 13:06:31;;;;;;;5.65;4.40;;;11.80;99.90;;;;;;5045015;28;20366;-32
2022/04/27 13:11:56;;;;;;;6.15;4.85;;;12.00;99.90;;;;;;5021871;28;21458;-32
2022/04/27 13:14:26;;;;;;;5.55;4.20;;;12.10;99.90;;;;;;5046705;28;20453;-31
2022/04/27 13:16:55;;;;;;;6.32;4.63;;;12.10;98.10;;;;;;5044163;28;20561;-32